Terminal Aerodrome Forecast
Issued by NWS

Home | Current Version | Previous Version | Graphics & Text | Print | Product List | Glossary On
Versions: 1 2 3 4 5 6 7 8 9 10 11 12 13 14 15 16 17
174
FTUS43 KBIS 241123
TAFMOT
TAF
KMOT 241123Z 2412/2512 26008KT P6SM SCT015 OVC025
     FM241600 29009KT P6SM OVC030
     FM242100 31010KT P6SM OVC015=

USA.gov is the U.S. government's official web portal to all federal, state and local government web resources and services.